»·PEaware :: QXE2811 KSEA-KPDX

QXE2811 :: KSEA-KPDX

FLIGHT INFORMATION

Flight Status: Arrived
Operator:
Horizon Air
More flights by this operator :: More flights under this callsign
Pilot: Adlai G. (28854)
Aircraft: DEHAVILLAND DASH 8 400
(DH8D)
More flights by this aircraft type
Origin: KSEA Seattle-Tacoma Intl
United States
Destination: KPDX Portland Intl
United States
More flights between these airports :: More routes between these airports
Route: +SEA7 BUWZO KRATR2
File this flight plan on PilotEdge
Remarks:
Altitude:
(Current/Filed)
17,000ft
Speed:
(Current/Filed)
362kts
Departed: 17-May-20 10:34 AM
Arrived: 17-May-20 11:03 AM
Distance/Time
Traveled:
112nm/0:29
Distance/Time
To Go:
Arrived

Flight Plot

Page will automatically refresh every two minutes.

Flight plan parsing failed; only flown route is shown


Map Options




Map Legend


Flown Route
Filed Route
Departure Airport
Arrival Airport
Navaid (VOR, NDB)
Fix

Horizontal Profiles

Position Reports

Time Latitude Longitude Heading Altitude Ground
Speed
17-May-20 10:07 47.443999 -122.303670 0 440ft 0kts
17-May-20 10:08 47.443999 -122.303670 0 440ft 0kts
17-May-20 10:09 47.443999 -122.303670 0 440ft 0kts
17-May-20 10:10 47.443999 -122.303670 0 440ft 0kts
17-May-20 10:11 47.443999 -122.303670 0 440ft 0kts
17-May-20 10:12 47.443999 -122.303670 0 440ft 0kts
17-May-20 10:13 47.443999 -122.303670 0 440ft 0kts
17-May-20 10:14 47.443999 -122.303670 0 440ft 0kts
17-May-20 10:15 47.443999 -122.303670 0 440ft 0kts
17-May-20 10:16 47.443999 -122.303670 0 440ft 0kts
17-May-20 10:17 47.443999 -122.303670 0 440ft 0kts
17-May-20 10:18 47.443999 -122.303670 0 440ft 0kts
17-May-20 10:19 47.443999 -122.303670 0 440ft 0kts
17-May-20 10:20 47.443999 -122.303670 0 440ft 0kts
17-May-20 10:21 47.443999 -122.303670 0 440ft 0kts
17-May-20 10:22 47.443999 -122.303670 0 440ft 0kts
17-May-20 10:23 47.443379 -122.303777 59 440ft 3kts
17-May-20 10:24 47.443222 -122.304876 79 440ft 2kts
17-May-20 10:25 47.442889 -122.305683 0 440ft 2kts
17-May-20 10:26 47.442837 -122.305683 0 440ft 0kts
17-May-20 10:27 47.442837 -122.305683 0 440ft 0kts
17-May-20 10:28 47.442837 -122.305683 0 440ft 0kts
17-May-20 10:29 47.442959 -122.305924 290 440ft 5kts
17-May-20 10:30 47.446935 -122.306286 0 440ft 27kts
17-May-20 10:31 47.454793 -122.306222 0 440ft 26kts
17-May-20 10:32 47.462764 -122.306150 0 440ft 17kts
17-May-20 10:33 47.462130 -122.307746 180 440ft 48kts
17-May-20 10:34 47.424604 -122.309101 184 2122ft 170kts
17-May-20 10:35 47.372311 -122.306775 180 4972ft 213kts
17-May-20 10:36 47.309011 -122.309243 184 7328ft 241kts
17-May-20 10:37 47.241285 -122.313157 181 9563ft 246kts
17-May-20 10:38 47.170686 -122.315439 178 11242ft 259kts
17-May-20 10:39 47.099686 -122.313772 178 13203ft 252kts
17-May-20 10:40 47.029259 -122.311323 178 14784ft 256kts
17-May-20 10:41 46.957984 -122.309571 179 16268ft 256kts
17-May-20 10:42 46.884925 -122.309372 180 16987ft 280kts
17-May-20 10:43 46.802780 -122.309662 180 17008ft 307kts
17-May-20 10:44 46.715461 -122.309379 181 17007ft 320kts
17-May-20 10:45 46.625568 -122.309648 181 17006ft 325kts
17-May-20 10:46 46.536645 -122.309711 181 16556ft 317kts
17-May-20 10:47 46.447086 -122.309772 180 14772ft 325kts
17-May-20 10:48 46.358407 -122.309979 180 13009ft 313kts
17-May-20 10:49 46.273588 -122.310480 179 11334ft 301kts
17-May-20 10:50 46.195135 -122.343486 199 10624ft 290kts
17-May-20 10:51 46.120299 -122.385662 199 10187ft 287kts
17-May-20 10:52 46.047795 -122.425517 201 9222ft 268kts
17-May-20 10:54 45.975982 -122.463647 202 7853ft 278kts
17-May-20 10:55 45.910921 -122.512394 221 6704ft 254kts
17-May-20 10:56 45.858971 -122.578758 221 5705ft 247kts
17-May-20 10:57 45.804268 -122.633038 205 4712ft 229kts
17-May-20 10:58 45.749882 -122.670462 205 2905ft 217kts
17-May-20 10:59 45.696709 -122.707688 205 2013ft 207kts
17-May-20 11:00 45.643935 -122.718489 146 1576ft 194kts
17-May-20 11:01 45.614839 -122.672226 115 849ft 122kts
17-May-20 11:02 45.598606 -122.630199 116 185ft 113kts
17-May-20 11:03 45.587923 -122.602901 118 37ft 22kts
17-May-20 11:04 45.589018 -122.599861 303 37ft 10kts
17-May-20 11:05 45.591560 -122.599398 88 37ft 16kts
17-May-20 11:06 45.590588 -122.598687 208 37ft 0kts
17-May-20 11:07 45.590588 -122.598687 208 37ft 0kts
17-May-20 11:08 45.590588 -122.598687 208 37ft 0kts
17-May-20 11:09 45.590588 -122.598687 208 37ft 0kts
17-May-20 11:09 45.590588 -122.598687 208 37ft 0kts

Navigation Log

Ident Type
Flight plan parsing failed, navigation log unavailable